Hickory Regional Airport Hickory US
ICAO: KHKY
IATA: HKY
Category: Medium
Scheduled Services: No

Elevation: 1190 ft
TransAlt. 18000 ft.

Airport Communications:
ASOS:118.325
CLNC DEL:121.7
ATLANTA CNTR:125.15
CTAF:128.15
GND:121.7
RALEIGH RDO:122.2
TWR:128.15

KHKY Zoom In..

If you have problems with the map follow the link
https://www.worldairports.se/pages/airport.php?
ICAO=KHKY

Runways:

(A) RW 01 length 4400 ft width 150 ft
---- / hdg 14

(B) RW 06 length 6400 ft width 150 ft
---- / hdg 61

(C) RW 19 length 4400 ft width 150 ft
---- / hdg 194

(D) RW 24 length 6400 ft width 150 ft
ILS 108.70 / hdg 241

Location; KHKY
Day. 08 / Time. 18.53 Zulu
* Altimeter: 30.34
* Temperature: 08° c. 46.4°f.
* Wind from: 030° Speed 05 kn.
Dewpoint: -07° c.
Visibility: 10 Statute Miles.
Clouds: Clear (automated report).

KHKY 081853Z 03005KT 10SM CLR 08/M07 A3034 RMK AO2 SLP267 T00831072


Wind From 030°
Speed 05 kn.

 
 
jpsmedia worldairports.se 2019   terms of use